Cherry Creek, Nevada
Current Conditions -  °F | °C
As of 5:53 AM on Thursday 23 Oct 2014 (Local Time) from KELY Reporting Station
Clear Clear  
Wind Chill: 51°   Ceiling: Unl
Heat Index: 51°   Visibility: 10mi
Dew Point: 20°   Wind: 15mph
Humidity: 29%   Direction: 200°SSW
Pressure: 30.2"   Gusts: NA
Location:  39.5572°N, 115.033°W
Report Text: KELY 231253Z AUTO 20013KT 10SM CLR 11/M07 A3020 RMK AO2 SLP157 T01061067
Loading
Personal Weather Stations






























Interactive Weather Map
Tropical Storm Tracking
New forecast layout! Learn more

10-Day Weather Forecast

Advertisements
Track Severe Weather on mobile